Stamford, VT (05352)

10:13 AM EDT on May 27, 2015 (GMT -0400)
Route 8 - 0.6 mile south of Vermont border | | Change Station
CLOSE
Current Station
Personal Weather Station
Location: Clarksburg, MA
Elevation: 1090 ft
Nearby Weather Stations

Elev 1090 ft 42.73 °N, 73.07 °W | Updated 9 minutes ago

Partly Cloudy
Partly Cloudy
74.3 °F
Feels Like 75 °F
N
1.0
Wind Variable Wind from SE
Gusts 3.0 mph

Today
High -- | Low -- °F
--% Chance of Precip.
Yesterday
High -- | Low -- °F
Precip. -- in
5:19 AM 8:19 PM
Waxing Gibbous, 67% visible
Pressure 30.11 in
Visibility 10.0 miles
Clouds Clear
Heat Index 75 °F
Dew Point 66 °F
Humidity 76%
Rainfall -999.00 in
Snow Depth Not available.
UV 5 out of 12
Pollen 6.60 out of 12
Air Quality Not available.
Flu Activity Local Activity
METAR KAQW 271252Z AUTO VRB04KT 10SM CLR 24/18 A3011 RMK AO2 SLP194 T02390183

More Conditions Fewer Conditions

Pressure 30.11 in
Visibility 10.0 miles
Clouds Clear
Heat Index 75 °F
Dew Point 66 °F
Humidity 76%
Rainfall -999.00 in
Snow Depth Not available.
UV 5 out of 12
Pollen 6.60 out of 12
Air Quality Not available.
Flu Activity Local Activity
METAR KAQW 271252Z AUTO VRB04KT 10SM CLR 24/18 A3011 RMK AO2 SLP194 T02390183

More Conditions Fewer Conditions

10-Day Weather Forecast

Almanac

Astronomy

May. 27, 2015 Rise Set
Actual Time
Civil Twilight
Nautical Twilight
Astronomical Twilight
Moon
Length of Visible Light
Length of Day
Tomorrow will be .
, % of the Moon is Illuminated

Today's Extremes

State Highs State Lows

Community

WunderPhotos

Upload Photos

1,824,680 photos uploaded!

WunderBlogs® & News

Nearby

Air Quality

  Air Quality AQ Index Pollutant
Not available.

Snow Depth

Station Depth Elevation

Earthquake Activity

City Distance Mag. Time & Date
Minimum magnitude displayed is 2.5.

Coastal Water Temperatures

Place Temperature

Stations

Nearby Weather Stations

Station Location Temp. Windchill Dew Point Humidity Wind Precip. Elev Updated Type